sensor_id;sensor_type;location;lat;lon;timestamp;temperature;humidity
210;DHT22;90;48.810;9.120;2022-08-06T00:02:21;22.90;56.30
210;DHT22;90;48.810;9.120;2022-08-06T00:04:49;23.00;55.70
210;DHT22;90;48.810;9.120;2022-08-06T00:07:17;22.90;55.60
210;DHT22;90;48.810;9.120;2022-08-06T00:09:44;22.90;55.80
210;DHT22;90;48.810;9.120;2022-08-06T00:12:13;22.80;56.00
210;DHT22;90;48.810;9.120;2022-08-06T00:14:40;22.80;56.10
210;DHT22;90;48.810;9.120;2022-08-06T00:17:07;22.90;56.00
210;DHT22;90;48.810;9.120;2022-08-06T00:19:34;22.90;55.80
210;DHT22;90;48.810;9.120;2022-08-06T00:22:01;22.80;56.40
210;DHT22;90;48.810;9.120;2022-08-06T00:24:28;22.70;56.60
210;DHT22;90;48.810;9.120;2022-08-06T00:26:56;22.70;56.70
210;DHT22;90;48.810;9.120;2022-08-06T00:29:24;22.60;56.80
210;DHT22;90;48.810;9.120;2022-08-06T00:31:51;22.60;57.50
210;DHT22;90;48.810;9.120;2022-08-06T00:34:18;22.70;56.90
210;DHT22;90;48.810;9.120;2022-08-06T00:36:45;22.80;56.40
210;DHT22;90;48.810;9.120;2022-08-06T00:39:16;22.70;56.80
210;DHT22;90;48.810;9.120;2022-08-06T00:41:43;22.60;57.20
210;DHT22;90;48.810;9.120;2022-08-06T00:44:10;22.70;56.50
210;DHT22;90;48.810;9.120;2022-08-06T00:46:39;22.70;56.40
210;DHT22;90;48.810;9.120;2022-08-06T00:49:06;22.70;55.90
210;DHT22;90;48.810;9.120;2022-08-06T00:51:34;22.70;55.60
210;DHT22;90;48.810;9.120;2022-08-06T00:54:01;22.70;55.40
210;DHT22;90;48.810;9.120;2022-08-06T00:56:28;22.60;54.30
210;DHT22;90;48.810;9.120;2022-08-06T00:58:56;22.60;54.30
210;DHT22;90;48.810;9.120;2022-08-06T01:01:23;22.60;54.20
210;DHT22;90;48.810;9.120;2022-08-06T01:03:51;22.60;53.50
210;DHT22;90;48.810;9.120;2022-08-06T01:06:19;22.40;53.80
210;DHT22;90;48.810;9.120;2022-08-06T01:08:46;22.40;53.70
210;DHT22;90;48.810;9.120;2022-08-06T01:11:13;22.50;54.20
210;DHT22;90;48.810;9.120;2022-08-06T01:13:40;22.50;53.50
210;DHT22;90;48.810;9.120;2022-08-06T01:16:15;22.50;53.50
210;DHT22;90;48.810;9.120;2022-08-06T01:18:57;22.50;53.30
210;DHT22;90;48.810;9.120;2022-08-06T01:21:56;22.40;53.70
210;DHT22;90;48.810;9.120;2022-08-06T01:24:50;22.50;53.30
210;DHT22;90;48.810;9.120;2022-08-06T01:27:33;22.50;53.50
210;DHT22;90;48.810;9.120;2022-08-06T01:30:05;22.50;54.20
210;DHT22;90;48.810;9.120;2022-08-06T01:32:37;22.50;55.00
210;DHT22;90;48.810;9.120;2022-08-06T01:35:08;22.60;55.20
210;DHT22;90;48.810;9.120;2022-08-06T01:37:41;22.60;55.60
210;DHT22;90;48.810;9.120;2022-08-06T01:40:15;22.60;55.30
210;DHT22;90;48.810;9.120;2022-08-06T01:42:45;22.50;55.10
210;DHT22;90;48.810;9.120;2022-08-06T01:45:15;22.40;54.50
210;DHT22;90;48.810;9.120;2022-08-06T01:47:47;22.40;53.90
210;DHT22;90;48.810;9.120;2022-08-06T01:50:18;22.30;54.20
210;DHT22;90;48.810;9.120;2022-08-06T01:52:47;22.10;54.20
210;DHT22;90;48.810;9.120;2022-08-06T01:55:17;22.10;54.20
210;DHT22;90;48.810;9.120;2022-08-06T01:57:49;22.10;54.30
210;DHT22;90;48.810;9.120;2022-08-06T02:00:17;22.20;54.30
210;DHT22;90;48.810;9.120;2022-08-06T02:02:45;22.20;53.90
210;DHT22;90;48.810;9.120;2022-08-06T02:05:13;22.20;54.10
210;DHT22;90;48.810;9.120;2022-08-06T02:07:43;22.20;54.40
210;DHT22;90;48.810;9.120;2022-08-06T02:10:14;22.30;54.40
210;DHT22;90;48.810;9.120;2022-08-06T02:12:46;22.20;54.90
210;DHT22;90;48.810;9.120;2022-08-06T02:15:17;22.10;55.40
210;DHT22;90;48.810;9.120;2022-08-06T02:17:49;22.00;55.60
210;DHT22;90;48.810;9.120;2022-08-06T02:20:20;21.90;56.00
210;DHT22;90;48.810;9.120;2022-08-06T02:22:50;21.80;56.40
210;DHT22;90;48.810;9.120;2022-08-06T02:25:18;21.80;57.00
210;DHT22;90;48.810;9.120;2022-08-06T02:27:49;21.70;57.20
210;DHT22;90;48.810;9.120;2022-08-06T02:30:17;21.70;57.20
210;DHT22;90;48.810;9.120;2022-08-06T02:32:44;21.70;57.00
210;DHT22;90;48.810;9.120;2022-08-06T02:35:12;21.70;57.20
210;DHT22;90;48.810;9.120;2022-08-06T02:37:43;21.60;57.50
210;DHT22;90;48.810;9.120;2022-08-06T02:40:17;21.70;57.10
210;DHT22;90;48.810;9.120;2022-08-06T02:42:53;21.60;57.40
210;DHT22;90;48.810;9.120;2022-08-06T02:45:25;21.70;57.70
210;DHT22;90;48.810;9.120;2022-08-06T02:47:59;21.60;57.90
210;DHT22;90;48.810;9.120;2022-08-06T02:50:31;21.60;57.70
210;DHT22;90;48.810;9.120;2022-08-06T02:53:05;21.60;57.60
210;DHT22;90;48.810;9.120;2022-08-06T02:55:35;21.60;57.50
210;DHT22;90;48.810;9.120;2022-08-06T02:58:10;21.50;58.00
210;DHT22;90;48.810;9.120;2022-08-06T03:00:41;21.50;58.30
210;DHT22;90;48.810;9.120;2022-08-06T03:03:10;21.60;58.40
210;DHT22;90;48.810;9.120;2022-08-06T03:05:41;21.60;58.00
210;DHT22;90;48.810;9.120;2022-08-06T03:08:09;21.60;58.30
210;DHT22;90;48.810;9.120;2022-08-06T03:10:37;21.70;58.10
210;DHT22;90;48.810;9.120;2022-08-06T03:13:07;21.70;58.10
210;DHT22;90;48.810;9.120;2022-08-06T03:15:35;21.60;58.20
210;DHT22;90;48.810;9.120;2022-08-06T03:18:05;21.60;58.10
210;DHT22;90;48.810;9.120;2022-08-06T03:20:34;21.50;58.60
210;DHT22;90;48.810;9.120;2022-08-06T03:23:04;21.50;58.80
210;DHT22;90;48.810;9.120;2022-08-06T03:25:38;21.60;58.40
210;DHT22;90;48.810;9.120;2022-08-06T03:28:08;21.50;58.40
210;DHT22;90;48.810;9.120;2022-08-06T03:30:36;21.50;58.20
210;DHT22;90;48.810;9.120;2022-08-06T03:33:08;21.50;58.10
210;DHT22;90;48.810;9.120;2022-08-06T03:35:37;21.50;57.80
210;DHT22;90;48.810;9.120;2022-08-06T03:38:06;21.50;57.70
210;DHT22;90;48.810;9.120;2022-08-06T03:40:38;21.40;57.60
210;DHT22;90;48.810;9.120;2022-08-06T03:43:08;21.30;58.10
210;DHT22;90;48.810;9.120;2022-08-06T03:45:38;21.40;58.10
210;DHT22;90;48.810;9.120;2022-08-06T03:48:07;21.40;57.80
210;DHT22;90;48.810;9.120;2022-08-06T03:50:38;21.30;58.10
210;DHT22;90;48.810;9.120;2022-08-06T03:53:17;21.30;57.90
210;DHT22;90;48.810;9.120;2022-08-06T03:55:46;21.30;58.10
210;DHT22;90;48.810;9.120;2022-08-06T03:58:16;21.40;58.10
210;DHT22;90;48.810;9.120;2022-08-06T04:00:46;21.40;57.80
210;DHT22;90;48.810;9.120;2022-08-06T04:03:14;21.40;57.90
210;DHT22;90;48.810;9.120;2022-08-06T04:05:43;21.40;57.90
210;DHT22;90;48.810;9.120;2022-08-06T04:08:11;21.50;57.90
210;DHT22;90;48.810;9.120;2022-08-06T04:10:44;21.40;58.20
210;DHT22;90;48.810;9.120;2022-08-06T04:13:16;21.50;57.90
210;DHT22;90;48.810;9.120;2022-08-06T04:15:44;21.50;57.90
210;DHT22;90;48.810;9.120;2022-08-06T04:18:15;21.50;58.00
210;DHT22;90;48.810;9.120;2022-08-06T04:20:45;21.40;58.20
210;DHT22;90;48.810;9.120;2022-08-06T04:23:13;21.30;58.20
210;DHT22;90;48.810;9.120;2022-08-06T04:25:42;21.30;58.30
210;DHT22;90;48.810;9.120;2022-08-06T04:28:11;21.30;58.40
210;DHT22;90;48.810;9.120;2022-08-06T04:32:46;21.30;58.60
210;DHT22;90;48.810;9.120;2022-08-06T04:35:14;21.20;58.80
210;DHT22;90;48.810;9.120;2022-08-06T04:37:43;21.30;58.90
210;DHT22;90;48.810;9.120;2022-08-06T04:40:11;21.20;58.90
210;DHT22;90;48.810;9.120;2022-08-06T04:42:39;21.10;59.10
210;DHT22;90;48.810;9.120;2022-08-06T04:45:07;21.20;59.10
210;DHT22;90;48.810;9.120;2022-08-06T04:47:36;21.20;59.10
210;DHT22;90;48.810;9.120;2022-08-06T04:50:05;21.20;59.00
210;DHT22;90;48.810;9.120;2022-08-06T04:52:33;21.20;59.00
210;DHT22;90;48.810;9.120;2022-08-06T04:55:02;21.10;59.30
210;DHT22;90;48.810;9.120;2022-08-06T04:57:32;21.10;59.50
210;DHT22;90;48.810;9.120;2022-08-06T04:59:59;21.10;59.60
210;DHT22;90;48.810;9.120;2022-08-06T05:02:29;21.20;59.60
210;DHT22;90;48.810;9.120;2022-08-06T05:04:58;21.10;59.60
210;DHT22;90;48.810;9.120;2022-08-06T05:07:31;21.10;59.60
210;DHT22;90;48.810;9.120;2022-08-06T05:09:59;21.10;59.70
210;DHT22;90;48.810;9.120;2022-08-06T05:12:35;21.10;59.80
210;DHT22;90;48.810;9.120;2022-08-06T05:15:07;21.20;59.80
210;DHT22;90;48.810;9.120;2022-08-06T05:17:46;21.20;59.90
210;DHT22;90;48.810;9.120;2022-08-06T05:20:18;21.20;59.80
210;DHT22;90;48.810;9.120;2022-08-06T05:22:53;21.20;59.80
210;DHT22;90;48.810;9.120;2022-08-06T05:25:25;21.00;60.20
210;DHT22;90;48.810;9.120;2022-08-06T05:27:54;21.10;60.20
210;DHT22;90;48.810;9.120;2022-08-06T05:30:24;21.10;60.60
210;DHT22;90;48.810;9.120;2022-08-06T05:32:51;21.10;60.40
210;DHT22;90;48.810;9.120;2022-08-06T05:35:21;21.20;60.20
210;DHT22;90;48.810;9.120;2022-08-06T05:37:56;21.10;60.20
210;DHT22;90;48.810;9.120;2022-08-06T05:40:23;21.20;60.20
210;DHT22;90;48.810;9.120;2022-08-06T05:42:51;21.10;60.90
210;DHT22;90;48.810;9.120;2022-08-06T05:45:21;21.10;60.70
210;DHT22;90;48.810;9.120;2022-08-06T05:47:48;21.20;60.80
210;DHT22;90;48.810;9.120;2022-08-06T05:50:22;21.10;60.20
210;DHT22;90;48.810;9.120;2022-08-06T05:52:57;21.10;60.50
210;DHT22;90;48.810;9.120;2022-08-06T05:55:34;21.10;60.30
210;DHT22;90;48.810;9.120;2022-08-06T05:58:11;21.10;60.70
210;DHT22;90;48.810;9.120;2022-08-06T06:00:41;21.10;60.70
210;DHT22;90;48.810;9.120;2022-08-06T06:03:12;21.00;60.80
210;DHT22;90;48.810;9.120;2022-08-06T06:05:40;21.10;60.70
210;DHT22;90;48.810;9.120;2022-08-06T06:08:09;21.00;60.80
210;DHT22;90;48.810;9.120;2022-08-06T06:10:47;21.00;61.40
210;DHT22;90;48.810;9.120;2022-08-06T06:13:16;21.00;61.80
210;DHT22;90;48.810;9.120;2022-08-06T06:15:55;21.20;60.70
210;DHT22;90;48.810;9.120;2022-08-06T06:18:37;21.20;60.60
210;DHT22;90;48.810;9.120;2022-08-06T06:21:15;21.30;60.60
210;DHT22;90;48.810;9.120;2022-08-06T06:24:03;21.30;59.80
210;DHT22;90;48.810;9.120;2022-08-06T06:26:44;21.30;60.20
210;DHT22;90;48.810;9.120;2022-08-06T06:29:18;21.30;60.30
210;DHT22;90;48.810;9.120;2022-08-06T06:31:58;21.30;60.60
210;DHT22;90;48.810;9.120;2022-08-06T06:34:39;21.40;60.20
210;DHT22;90;48.810;9.120;2022-08-06T06:37:23;21.50;60.40
210;DHT22;90;48.810;9.120;2022-08-06T06:40:07;21.50;60.60
210;DHT22;90;48.810;9.120;2022-08-06T06:42:40;21.40;60.00
210;DHT22;90;48.810;9.120;2022-08-06T06:45:14;21.50;60.80
210;DHT22;90;48.810;9.120;2022-08-06T06:47:55;21.60;59.80
210;DHT22;90;48.810;9.120;2022-08-06T06:50:28;21.60;59.70
210;DHT22;90;48.810;9.120;2022-08-06T06:52:56;21.60;59.70
210;DHT22;90;48.810;9.120;2022-08-06T06:55:28;21.60;60.40
210;DHT22;90;48.810;9.120;2022-08-06T06:58:06;21.70;59.70
210;DHT22;90;48.810;9.120;2022-08-06T07:00:36;21.70;59.60
210;DHT22;90;48.810;9.120;2022-08-06T07:03:05;21.60;59.60
210;DHT22;90;48.810;9.120;2022-08-06T07:05:33;21.60;59.50
210;DHT22;90;48.810;9.120;2022-08-06T07:08:04;21.60;59.50
210;DHT22;90;48.810;9.120;2022-08-06T07:10:36;21.60;59.40
210;DHT22;90;48.810;9.120;2022-08-06T07:13:06;21.50;60.00
210;DHT22;90;48.810;9.120;2022-08-06T07:15:35;21.40;60.00
210;DHT22;90;48.810;9.120;2022-08-06T07:18:03;21.60;60.30
210;DHT22;90;48.810;9.120;2022-08-06T07:20:32;21.70;59.40
210;DHT22;90;48.810;9.120;2022-08-06T07:23:06;21.80;59.70
210;DHT22;90;48.810;9.120;2022-08-06T07:25:38;21.80;59.20
210;DHT22;90;48.810;9.120;2022-08-06T07:28:09;22.00;59.80
210;DHT22;90;48.810;9.120;2022-08-06T07:30:37;22.10;60.10
210;DHT22;90;48.810;9.120;2022-08-06T07:33:05;22.10;59.60
210;DHT22;90;48.810;9.120;2022-08-06T07:35:35;22.20;58.20
210;DHT22;90;48.810;9.120;2022-08-06T07:38:04;22.20;58.40
210;DHT22;90;48.810;9.120;2022-08-06T07:40:37;22.30;58.40
210;DHT22;90;48.810;9.120;2022-08-06T07:43:11;22.10;58.80
210;DHT22;90;48.810;9.120;2022-08-06T07:45:39;22.10;58.80
210;DHT22;90;48.810;9.120;2022-08-06T07:48:10;22.20;58.90
210;DHT22;90;48.810;9.120;2022-08-06T07:50:38;22.30;57.80
210;DHT22;90;48.810;9.120;2022-08-06T07:53:10;22.40;57.90
210;DHT22;90;48.810;9.120;2022-08-06T07:55:38;22.40;57.30
210;DHT22;90;48.810;9.120;2022-08-06T07:58:07;22.40;57.20
210;DHT22;90;48.810;9.120;2022-08-06T08:00:35;22.20;57.80
210;DHT22;90;48.810;9.120;2022-08-06T08:03:04;22.20;57.60
210;DHT22;90;48.810;9.120;2022-08-06T08:05:49;22.00;58.10
210;DHT22;90;48.810;9.120;2022-08-06T08:08:34;21.90;58.50
210;DHT22;90;48.810;9.120;2022-08-06T08:11:02;21.70;58.60
210;DHT22;90;48.810;9.120;2022-08-06T08:13:31;21.60;59.50
210;DHT22;90;48.810;9.120;2022-08-06T08:15:59;21.70;58.90
210;DHT22;90;48.810;9.120;2022-08-06T08:18:31;21.70;58.80
210;DHT22;90;48.810;9.120;2022-08-06T08:21:00;21.60;58.20
210;DHT22;90;48.810;9.120;2022-08-06T08:23:29;21.50;58.40
210;DHT22;90;48.810;9.120;2022-08-06T08:25:59;21.60;58.40
210;DHT22;90;48.810;9.120;2022-08-06T08:28:27;21.70;57.70
210;DHT22;90;48.810;9.120;2022-08-06T08:30:56;21.90;57.30
210;DHT22;90;48.810;9.120;2022-08-06T08:33:24;21.90;57.20
210;DHT22;90;48.810;9.120;2022-08-06T08:35:52;22.00;57.30
210;DHT22;90;48.810;9.120;2022-08-06T08:38:24;22.00;57.20
210;DHT22;90;48.810;9.120;2022-08-06T08:40:54;22.10;56.90
210;DHT22;90;48.810;9.120;2022-08-06T08:43:24;22.10;57.00
210;DHT22;90;48.810;9.120;2022-08-06T08:45:52;22.10;57.00
210;DHT22;90;48.810;9.120;2022-08-06T08:48:25;22.30;57.20
210;DHT22;90;48.810;9.120;2022-08-06T08:50:56;22.30;58.20
210;DHT22;90;48.810;9.120;2022-08-06T08:53:29;22.40;57.80
210;DHT22;90;48.810;9.120;2022-08-06T08:55:58;22.40;57.80
210;DHT22;90;48.810;9.120;2022-08-06T08:58:26;22.60;57.70
210;DHT22;90;48.810;9.120;2022-08-06T09:00:53;22.70;57.40
210;DHT22;90;48.810;9.120;2022-08-06T09:03:21;22.70;55.80
210;DHT22;90;48.810;9.120;2022-08-06T09:05:50;22.70;55.90
210;DHT22;90;48.810;9.120;2022-08-06T09:08:17;22.70;55.50
210;DHT22;90;48.810;9.120;2022-08-06T09:10:45;22.80;55.50
210;DHT22;90;48.810;9.120;2022-08-06T09:13:12;22.80;55.40
210;DHT22;90;48.810;9.120;2022-08-06T09:15:40;23.00;54.80
210;DHT22;90;48.810;9.120;2022-08-06T09:18:07;22.90;55.70
210;DHT22;90;48.810;9.120;2022-08-06T09:20:36;23.00;54.80
210;DHT22;90;48.810;9.120;2022-08-06T09:23:04;23.10;54.50
210;DHT22;90;48.810;9.120;2022-08-06T09:25:40;23.10;54.10
210;DHT22;90;48.810;9.120;2022-08-06T09:30:57;23.00;55.10
210;DHT22;90;48.810;9.120;2022-08-06T09:33:25;22.90;55.50
210;DHT22;90;48.810;9.120;2022-08-06T09:36:00;22.80;55.00
210;DHT22;90;48.810;9.120;2022-08-06T09:38:32;22.80;55.10
210;DHT22;90;48.810;9.120;2022-08-06T09:41:12;22.80;54.70
210;DHT22;90;48.810;9.120;2022-08-06T09:43:39;22.80;54.20
210;DHT22;90;48.810;9.120;2022-08-06T09:46:07;22.90;53.90
210;DHT22;90;48.810;9.120;2022-08-06T09:48:34;23.10;54.20
210;DHT22;90;48.810;9.120;2022-08-06T09:51:02;23.20;52.60
210;DHT22;90;48.810;9.120;2022-08-06T09:53:32;23.20;52.70
210;DHT22;90;48.810;9.120;2022-08-06T09:55:59;23.10;53.40
210;DHT22;90;48.810;9.120;2022-08-06T09:58:31;22.90;53.90
210;DHT22;90;48.810;9.120;2022-08-06T10:01:13;22.80;53.90
210;DHT22;90;48.810;9.120;2022-08-06T10:03:44;22.70;55.50
210;DHT22;90;48.810;9.120;2022-08-06T10:06:14;22.70;53.50
210;DHT22;90;48.810;9.120;2022-08-06T10:08:43;22.80;53.40
210;DHT22;90;48.810;9.120;2022-08-06T10:11:10;22.90;52.80
210;DHT22;90;48.810;9.120;2022-08-06T10:13:37;23.20;52.20
210;DHT22;90;48.810;9.120;2022-08-06T10:16:19;23.40;51.10
210;DHT22;90;48.810;9.120;2022-08-06T10:18:47;23.70;51.60
210;DHT22;90;48.810;9.120;2022-08-06T10:21:17;23.80;52.40
210;DHT22;90;48.810;9.120;2022-08-06T10:23:48;23.90;52.00
210;DHT22;90;48.810;9.120;2022-08-06T10:26:19;24.00;51.20
210;DHT22;90;48.810;9.120;2022-08-06T10:28:48;24.00;50.20
210;DHT22;90;48.810;9.120;2022-08-06T10:31:19;24.10;48.90
210;DHT22;90;48.810;9.120;2022-08-06T10:33:50;24.10;48.90
210;DHT22;90;48.810;9.120;2022-08-06T10:36:21;24.10;49.50
210;DHT22;90;48.810;9.120;2022-08-06T10:38:54;24.00;49.90
210;DHT22;90;48.810;9.120;2022-08-06T10:41:22;24.00;49.60
210;DHT22;90;48.810;9.120;2022-08-06T10:43:52;24.00;49.40
210;DHT22;90;48.810;9.120;2022-08-06T10:46:20;24.00;49.40
210;DHT22;90;48.810;9.120;2022-08-06T10:48:48;24.10;49.10
210;DHT22;90;48.810;9.120;2022-08-06T10:51:16;24.10;49.60
210;DHT22;90;48.810;9.120;2022-08-06T10:53:45;24.10;48.20
210;DHT22;90;48.810;9.120;2022-08-06T10:56:15;24.10;49.00
210;DHT22;90;48.810;9.120;2022-08-06T10:58:42;24.10;48.80
210;DHT22;90;48.810;9.120;2022-08-06T11:01:18;24.10;49.40
210;DHT22;90;48.810;9.120;2022-08-06T11:04:00;24.00;48.40
210;DHT22;90;48.810;9.120;2022-08-06T11:06:41;23.80;48.00
210;DHT22;90;48.810;9.120;2022-08-06T11:09:37;23.80;48.40
210;DHT22;90;48.810;9.120;2022-08-06T11:12:23;23.80;48.40
210;DHT22;90;48.810;9.120;2022-08-06T11:14:52;23.80;49.00
210;DHT22;90;48.810;9.120;2022-08-06T11:17:19;23.90;48.80
210;DHT22;90;48.810;9.120;2022-08-06T11:19:48;23.90;48.60
210;DHT22;90;48.810;9.120;2022-08-06T11:22:40;24.20;48.50
210;DHT22;90;48.810;9.120;2022-08-06T11:25:09;24.50;47.80
210;DHT22;90;48.810;9.120;2022-08-06T11:27:52;24.70;47.90
210;DHT22;90;48.810;9.120;2022-08-06T11:30:23;24.80;47.60
210;DHT22;90;48.810;9.120;2022-08-06T11:33:02;24.80;47.30
210;DHT22;90;48.810;9.120;2022-08-06T11:35:39;24.80;47.50
210;DHT22;90;48.810;9.120;2022-08-06T11:38:13;24.90;47.40
210;DHT22;90;48.810;9.120;2022-08-06T11:40:53;25.10;46.10
210;DHT22;90;48.810;9.120;2022-08-06T11:43:47;25.40;46.50
210;DHT22;90;48.810;9.120;2022-08-06T11:46:20;25.40;46.00
210;DHT22;90;48.810;9.120;2022-08-06T11:49:18;25.30;45.30
210;DHT22;90;48.810;9.120;2022-08-06T11:51:48;25.00;44.40
210;DHT22;90;48.810;9.120;2022-08-06T11:54:17;25.00;45.90
210;DHT22;90;48.810;9.120;2022-08-06T11:57:19;24.80;46.10
210;DHT22;90;48.810;9.120;2022-08-06T12:00:05;24.90;47.70
210;DHT22;90;48.810;9.120;2022-08-06T12:02:59;25.20;47.10
210;DHT22;90;48.810;9.120;2022-08-06T12:05:42;25.20;46.70
210;DHT22;90;48.810;9.120;2022-08-06T12:08:16;25.10;46.40
210;DHT22;90;48.810;9.120;2022-08-06T12:13:50;25.00;46.50
210;DHT22;90;48.810;9.120;2022-08-06T12:16:42;25.00;47.30
210;DHT22;90;48.810;9.120;2022-08-06T12:19:14;25.10;46.60
210;DHT22;90;48.810;9.120;2022-08-06T12:21:42;25.00;44.90
210;DHT22;90;48.810;9.120;2022-08-06T12:24:13;25.10;44.90
210;DHT22;90;48.810;9.120;2022-08-06T12:26:40;25.20;45.60
210;DHT22;90;48.810;9.120;2022-08-06T12:29:08;25.10;46.80
210;DHT22;90;48.810;9.120;2022-08-06T12:31:37;25.10;46.90
210;DHT22;90;48.810;9.120;2022-08-06T12:34:07;25.10;46.40
210;DHT22;90;48.810;9.120;2022-08-06T12:36:35;25.30;46.60
210;DHT22;90;48.810;9.120;2022-08-06T12:39:05;25.60;46.30
210;DHT22;90;48.810;9.120;2022-08-06T12:41:42;25.90;43.60
210;DHT22;90;48.810;9.120;2022-08-06T12:44:11;26.00;43.20
210;DHT22;90;48.810;9.120;2022-08-06T12:46:39;26.20;42.20
210;DHT22;90;48.810;9.120;2022-08-06T12:49:12;26.10;42.20
210;DHT22;90;48.810;9.120;2022-08-06T12:51:41;26.10;42.90
210;DHT22;90;48.810;9.120;2022-08-06T12:54:09;26.20;42.10
210;DHT22;90;48.810;9.120;2022-08-06T12:56:39;26.30;41.80
210;DHT22;90;48.810;9.120;2022-08-06T12:59:13;26.50;41.90
210;DHT22;90;48.810;9.120;2022-08-06T13:01:42;26.60;42.30
210;DHT22;90;48.810;9.120;2022-08-06T13:04:12;26.60;41.80
210;DHT22;90;48.810;9.120;2022-08-06T13:06:39;26.40;42.50
210;DHT22;90;48.810;9.120;2022-08-06T13:09:07;26.20;43.10
210;DHT22;90;48.810;9.120;2022-08-06T13:11:35;26.10;42.40
210;DHT22;90;48.810;9.120;2022-08-06T13:14:11;26.10;42.50
210;DHT22;90;48.810;9.120;2022-08-06T13:16:43;26.30;43.10
210;DHT22;90;48.810;9.120;2022-08-06T13:19:13;26.50;41.90
210;DHT22;90;48.810;9.120;2022-08-06T13:21:41;26.70;42.00
210;DHT22;90;48.810;9.120;2022-08-06T13:24:09;26.80;42.20
210;DHT22;90;48.810;9.120;2022-08-06T13:26:50;26.90;41.80
210;DHT22;90;48.810;9.120;2022-08-06T13:29:21;26.90;42.70
210;DHT22;90;48.810;9.120;2022-08-06T13:32:02;26.90;42.40
210;DHT22;90;48.810;9.120;2022-08-06T13:34:46;26.90;40.90
210;DHT22;90;48.810;9.120;2022-08-06T13:37:13;26.90;40.60
210;DHT22;90;48.810;9.120;2022-08-06T13:39:49;26.90;41.50
210;DHT22;90;48.810;9.120;2022-08-06T13:42:16;27.10;39.60
210;DHT22;90;48.810;9.120;2022-08-06T13:44:45;27.30;39.20
210;DHT22;90;48.810;9.120;2022-08-06T13:47:13;27.50;39.30
210;DHT22;90;48.810;9.120;2022-08-06T13:49:43;27.70;38.00
210;DHT22;90;48.810;9.120;2022-08-06T13:52:14;27.80;38.80
210;DHT22;90;48.810;9.120;2022-08-06T13:54:41;27.90;37.70
210;DHT22;90;48.810;9.120;2022-08-06T13:57:08;27.90;38.50
210;DHT22;90;48.810;9.120;2022-08-06T13:59:37;28.00;36.90
210;DHT22;90;48.810;9.120;2022-08-06T14:02:04;28.00;36.90
210;DHT22;90;48.810;9.120;2022-08-06T14:04:34;28.20;36.40
210;DHT22;90;48.810;9.120;2022-08-06T14:07:07;28.10;37.20
210;DHT22;90;48.810;9.120;2022-08-06T14:09:34;28.00;37.90
210;DHT22;90;48.810;9.120;2022-08-06T14:12:02;27.80;38.00
210;DHT22;90;48.810;9.120;2022-08-06T14:14:33;27.60;38.00
210;DHT22;90;48.810;9.120;2022-08-06T14:17:00;27.70;38.30
210;DHT22;90;48.810;9.120;2022-08-06T14:19:28;27.80;37.20
210;DHT22;90;48.810;9.120;2022-08-06T14:21:55;27.70;37.20
210;DHT22;90;48.810;9.120;2022-08-06T14:24:30;27.70;36.70
210;DHT22;90;48.810;9.120;2022-08-06T14:26:57;27.80;36.70
210;DHT22;90;48.810;9.120;2022-08-06T14:29:24;28.00;36.20
210;DHT22;90;48.810;9.120;2022-08-06T14:31:54;28.10;35.90
210;DHT22;90;48.810;9.120;2022-08-06T14:34:21;27.80;36.10
210;DHT22;90;48.810;9.120;2022-08-06T14:36:49;27.90;36.70
210;DHT22;90;48.810;9.120;2022-08-06T14:39:16;28.20;36.40
210;DHT22;90;48.810;9.120;2022-08-06T14:41:46;28.50;37.10
210;DHT22;90;48.810;9.120;2022-08-06T14:44:30;28.80;35.00
210;DHT22;90;48.810;9.120;2022-08-06T14:47:15;28.90;34.20
210;DHT22;90;48.810;9.120;2022-08-06T14:49:43;28.90;34.00
210;DHT22;90;48.810;9.120;2022-08-06T14:52:10;28.80;35.40
210;DHT22;90;48.810;9.120;2022-08-06T14:54:38;29.00;35.50
210;DHT22;90;48.810;9.120;2022-08-06T14:57:08;29.20;34.40
210;DHT22;90;48.810;9.120;2022-08-06T14:59:35;29.50;35.00
210;DHT22;90;48.810;9.120;2022-08-06T15:02:03;29.40;32.80
210;DHT22;90;48.810;9.120;2022-08-06T15:04:30;29.30;34.30
210;DHT22;90;48.810;9.120;2022-08-06T15:06:57;29.40;34.70
210;DHT22;90;48.810;9.120;2022-08-06T15:09:27;29.60;35.30
210;DHT22;90;48.810;9.120;2022-08-06T15:11:55;29.80;34.50
210;DHT22;90;48.810;9.120;2022-08-06T15:14:23;29.90;34.10
210;DHT22;90;48.810;9.120;2022-08-06T15:16:51;30.00;33.20
210;DHT22;90;48.810;9.120;2022-08-06T15:19:18;29.70;34.10
210;DHT22;90;48.810;9.120;2022-08-06T15:21:45;29.70;33.90
210;DHT22;90;48.810;9.120;2022-08-06T15:24:12;29.70;32.50
210;DHT22;90;48.810;9.120;2022-08-06T15:26:40;29.70;33.60
210;DHT22;90;48.810;9.120;2022-08-06T15:29:07;29.80;32.50
210;DHT22;90;48.810;9.120;2022-08-06T15:31:36;29.90;31.40
210;DHT22;90;48.810;9.120;2022-08-06T15:34:03;30.00;31.50
210;DHT22;90;48.810;9.120;2022-08-06T15:36:30;30.10;30.90
210;DHT22;90;48.810;9.120;2022-08-06T15:38:58;30.10;30.70
210;DHT22;90;48.810;9.120;2022-08-06T15:41:25;30.30;30.60
210;DHT22;90;48.810;9.120;2022-08-06T15:43:55;30.30;31.00
210;DHT22;90;48.810;9.120;2022-08-06T15:46:22;30.30;32.00
210;DHT22;90;48.810;9.120;2022-08-06T15:48:50;30.50;31.10
210;DHT22;90;48.810;9.120;2022-08-06T15:51:22;30.40;30.80
210;DHT22;90;48.810;9.120;2022-08-06T15:53:50;30.50;31.20
210;DHT22;90;48.810;9.120;2022-08-06T15:56:17;30.40;30.60
210;DHT22;90;48.810;9.120;2022-08-06T15:58:44;30.30;30.20
210;DHT22;90;48.810;9.120;2022-08-06T16:01:11;30.20;30.00
210;DHT22;90;48.810;9.120;2022-08-06T16:03:38;30.40;30.60
210;DHT22;90;48.810;9.120;2022-08-06T16:06:07;30.60;29.90
210;DHT22;90;48.810;9.120;2022-08-06T16:08:34;30.70;29.30
210;DHT22;90;48.810;9.120;2022-08-06T16:11:03;30.60;29.20
210;DHT22;90;48.810;9.120;2022-08-06T16:13:31;30.70;29.20
210;DHT22;90;48.810;9.120;2022-08-06T16:15:58;30.80;29.40
210;DHT22;90;48.810;9.120;2022-08-06T16:18:25;30.90;28.30
210;DHT22;90;48.810;9.120;2022-08-06T16:20:55;30.70;28.70
210;DHT22;90;48.810;9.120;2022-08-06T16:23:24;30.80;28.80
210;DHT22;90;48.810;9.120;2022-08-06T16:25:51;30.90;28.40
210;DHT22;90;48.810;9.120;2022-08-06T16:28:18;31.00;28.90
210;DHT22;90;48.810;9.120;2022-08-06T16:30:46;31.10;28.60
210;DHT22;90;48.810;9.120;2022-08-06T16:33:19;31.20;28.50
210;DHT22;90;48.810;9.120;2022-08-06T16:35:46;31.30;28.10
210;DHT22;90;48.810;9.120;2022-08-06T16:38:16;31.30;28.30
210;DHT22;90;48.810;9.120;2022-08-06T16:40:44;31.50;27.80
210;DHT22;90;48.810;9.120;2022-08-06T16:43:11;31.30;27.50
210;DHT22;90;48.810;9.120;2022-08-06T16:45:38;31.30;27.60
210;DHT22;90;48.810;9.120;2022-08-06T16:48:05;31.30;27.50
210;DHT22;90;48.810;9.120;2022-08-06T16:50:33;31.40;26.50
210;DHT22;90;48.810;9.120;2022-08-06T16:53:02;31.20;26.90
210;DHT22;90;48.810;9.120;2022-08-06T16:55:29;31.10;27.20
210;DHT22;90;48.810;9.120;2022-08-06T16:57:58;31.00;26.90
210;DHT22;90;48.810;9.120;2022-08-06T17:00:25;30.80;27.20
210;DHT22;90;48.810;9.120;2022-08-06T17:02:52;30.80;27.40
210;DHT22;90;48.810;9.120;2022-08-06T17:05:19;30.90;26.60
210;DHT22;90;48.810;9.120;2022-08-06T17:07:47;30.90;26.50
210;DHT22;90;48.810;9.120;2022-08-06T17:10:15;31.00;26.80
210;DHT22;90;48.810;9.120;2022-08-06T17:12:44;31.20;26.40
210;DHT22;90;48.810;9.120;2022-08-06T17:15:14;31.20;25.70
210;DHT22;90;48.810;9.120;2022-08-06T17:17:43;31.30;25.30
210;DHT22;90;48.810;9.120;2022-08-06T17:20:11;31.20;25.50
210;DHT22;90;48.810;9.120;2022-08-06T17:22:38;31.10;25.30
210;DHT22;90;48.810;9.120;2022-08-06T17:25:07;31.20;24.80